Dart — OUOV2 — position and weather

sailwx.info

Track history (hours):
 
Tides and Currents Weather Stations Pressure Air Temp Water Temp Dewpoint Dewpoint Depression Visibility Wind Speed Wind Dir Waves Ship Positions

Dart

Last reported at 2017-Jun-27 13:30 UTC. Time now 2017-Jun-27 13:52 UTC.
Position N 70°26' E 022°05'.

Length 66 m; draft 4.4 m.

Type: Tanker. MMSI: 219416000.

Date/timePositionNaut miles runAvg speedWind from/ knotsBaromVisibWave heightAir tempDewpointWater temp
2017-Jun-27 13:30N 70°26' E 022°05'5 9.1
2017-Jun-27 13:00N 70°27' E 022°18'5 9.6
2017-Jun-27 12:30N 70°29' E 022°31'5 9.7
2017-Jun-27 12:00N 70°30' E 022°45'5 9.4
2017-Jun-27 11:30N 70°31' E 022°58'5 9.7
2017-Jun-27 11:01N 70°35' E 023°09'510.4
2017-Jun-27 10:30N 70°38' E 023°22'5 9.1
2017-Jun-27 10:00N 70°37' E 023°36'1 2.8
2017-Jun-27 09:30N 70°38' E 023°39'0 0.0
2017-Jun-27 09:00N 70°38' E 023°39'0 0.0
2017-Jun-27 08:30N 70°38' E 023°39'0 0.0
2017-Jun-27 08:00N 70°38' E 023°39'0 0.0
2017-Jun-27 07:30N 70°38' E 023°39'0 0.0
2017-Jun-27 07:00N 70°38' E 023°39'0 0.0
2017-Jun-27 06:30N 70°38' E 023°39'0 0.0
2017-Jun-27 06:00N 70°38' E 023°39'0 0.0
2017-Jun-27 05:30N 70°38' E 023°39'0 0.0
2017-Jun-27 05:00N 70°38' E 023°39'0 0.0
2017-Jun-27 04:30N 70°38' E 023°39'0 0.0
2017-Jun-27 04:00N 70°38' E 023°39'0 0.0
2017-Jun-27 03:30N 70°38' E 023°39'0 0.0
2017-Jun-27 03:00N 70°38' E 023°39'0 0.0
2017-Jun-27 02:30N 70°38' E 023°39'0 0.0
2017-Jun-27 02:00N 70°38' E 023°39'0 0.0
2017-Jun-27 01:30N 70°38' E 023°39'0 0.0
2017-Jun-27 01:00N 70°38' E 023°39'0 0.0
2017-Jun-27 00:30N 70°38' E 023°39'0 0.0
2017-Jun-27 00:00N 70°38' E 023°39'0 0.0
2017-Jun-26 23:30N 70°38' E 023°39'0 0.0
2017-Jun-26 23:00N 70°38' E 023°39'0 0.0
2017-Jun-26 22:30N 70°38' E 023°39'0 0.0
2017-Jun-26 22:00N 70°38' E 023°39'0 0.0
2017-Jun-26 21:30N 70°38' E 023°39'0 0.0
2017-Jun-26 21:00N 70°38' E 023°39'0 0.0
2017-Jun-26 20:30N 70°38' E 023°39'0 0.0
2017-Jun-26 20:00N 70°38' E 023°39'0 0.0
2017-Jun-26 19:30N 70°38' E 023°39'0 0.0
2017-Jun-26 19:00N 70°38' E 023°39'0 0.0
2017-Jun-26 18:30N 70°38' E 023°39'0 0.0
2017-Jun-26 18:00N 70°38' E 023°39'0 0.0
2017-Jun-26 17:30N 70°38' E 023°39'0 0.0
2017-Jun-26 17:00N 70°38' E 023°39'0 0.0
2017-Jun-26 16:30N 70°38' E 023°39'0 0.0
2017-Jun-26 16:00N 70°38' E 023°39'0 0.0
2017-Jun-26 15:30N 70°38' E 023°39'0 0.0
2017-Jun-26 15:00N 70°38' E 023°39'0 0.0
2017-Jun-26 14:30N 70°38' E 023°39'0 0.0
2017-Jun-26 13:30N 70°38' E 023°39'0 0.0
2017-Jun-26 12:54N 70°38' E 023°39'0 0.0
2017-Jun-26 12:30N 70°38' E 023°39'0 0.1
2017-Jun-26 08:23N 70°38' E 023°39'0 0.0
2017-Jun-26 07:59N 70°38' E 023°39'0 0.0
2017-Jun-26 07:29N 70°38' E 023°39'0 0.0
2017-Jun-26 06:59N 70°38' E 023°39'0 0.0
2017-Jun-26 06:29N 70°38' E 023°39'0 0.0
2017-Jun-26 05:59N 70°38' E 023°39'0 0.0
2017-Jun-26 05:29N 70°38' E 023°39'0 0.0
2017-Jun-26 04:59N 70°38' E 023°39'0 0.0
2017-Jun-26 04:29N 70°38' E 023°39'0 0.0
2017-Jun-26 03:59N 70°38' E 023°39'0 0.0
2017-Jun-26 03:29N 70°38' E 023°39'0 0.0
2017-Jun-26 02:59N 70°38' E 023°39'0 0.0
2017-Jun-26 02:29N 70°38' E 023°39'0 0.0
2017-Jun-26 01:59N 70°38' E 023°39'0 0.0
2017-Jun-26 01:29N 70°38' E 023°39'0 0.6
2017-Jun-26 01:00N 70°37' E 023°38'5 9.0
2017-Jun-26 00:30N 70°38' E 023°25'611.5
2017-Jun-26 00:00N 70°35' E 023°11'510.3
2017-Jun-25 23:30N 70°31' E 022°60'510.5
2017-Jun-25 23:00N 70°29' E 022°45'510.0
2017-Jun-25 22:30N 70°28' E 022°31'510.0
2017-Jun-25 22:00N 70°27' E 022°16'510.5
2017-Jun-25 21:30N 70°25' E 022°01'510.2
2017-Jun-25 21:00N 70°24' E 021°46'510.1
2017-Jun-25 20:30N 70°21' E 021°34'510.8
2017-Jun-25 20:00N 70°17' E 021°23'510.0
2017-Jun-25 19:30N 70°14' E 021°11'510.2
2017-Jun-25 19:00N 70°10' E 021°03'510.3
2017-Jun-25 18:30N 70°05' E 020°57'510.1
2017-Jun-25 18:00N 70°02' E 020°45'510.0
2017-Jun-25 17:30N 70°01' E 020°31'510.4
2017-Jun-25 17:00N 69°59' E 020°17'510.0
2017-Jun-25 16:30N 69°56' E 020°05'510.0
2017-Jun-25 16:00N 69°53' E 019°54'510.3
2017-Jun-25 15:30N 69°50' E 019°42'510.2
2017-Jun-25 14:59N 69°48' E 019°27'510.2
2017-Jun-25 14:30N 69°47' E 019°14'9 9.4
2017-Jun-25 13:30N 69°39' E 018°59'5 9.6
2017-Jun-25 13:00N 69°35' E 018°51'510.6
2017-Jun-25 12:30N 69°33' E 018°38'610.9
2017-Jun-25 12:00N 69°30' E 018°23'510.7
2017-Jun-25 11:30N 69°28' E 018°09'4 9.1
2017-Jun-25 11:00N 69°24' E 018°06'4 8.5
2017-Jun-25 10:30N 69°20' E 018°02'5 9.1
2017-Jun-25 10:00N 69°16' E 017°58'5 9.2
2017-Jun-25 09:30N 69°11' E 018°01'510.2
2017-Jun-25 09:00N 69°09' E 017°48'510.5
2017-Jun-25 08:30N 69°07' E 017°35'510.3
2017-Jun-25 08:00N 69°04' E 017°22'510.5
2017-Jun-25 07:30N 68°60' E 017°15'510.7
2017-Jun-25 07:00N 68°56' E 017°04'510.4
2017-Jun-25 06:30N 68°51' E 016°57'510.2
2017-Jun-25 06:00N 68°47' E 016°50'510.2
2017-Jun-25 05:30N 68°43' E 016°43'510.1
2017-Jun-25 05:00N 68°38' E 016°36'5 9.9
2017-Jun-25 04:30N 68°34' E 016°31'5 9.1
2017-Jun-25 04:00N 68°33' E 016°18'5 9.7
2017-Jun-25 03:30N 68°30' E 016°08'510.0
2017-Jun-25 03:00N 68°25' E 016°04'510.1
2017-Jun-25 02:30N 68°21' E 015°58'510.1
2017-Jun-25 02:00N 68°17' E 015°48'510.0
2017-Jun-25 01:30N 68°14' E 015°38'510.0
2017-Jun-25 01:00N 68°11' E 015°28'510.7
2017-Jun-25 00:30N 68°07' E 015°17'510.7
2017-Jun-25 00:00N 68°04' E 015°06'510.7
2017-Jun-24 23:30N 67°60' E 014°56'511.0
2017-Jun-24 23:00N 67°56' E 014°45'611.5
2017-Jun-24 22:30N 67°52' E 014°34'510.7
2017-Jun-24 22:00N 67°47' E 014°32'511.1
2017-Jun-24 21:30N 67°42' E 014°31'511.0
2017-Jun-24 21:00N 67°36' E 014°31'610.7
2017-Jun-24 20:30N 67°31' E 014°30'510.8
2017-Jun-24 20:00N 67°25' E 014°28'511.0
2017-Jun-24 19:30N 67°21' E 014°21'510.8
2017-Jun-24 19:00N 67°16' E 014°13'510.6
2017-Jun-24 18:30N 67°12' E 014°06'510.7
2017-Jun-24 18:00N 67°07' E 013°60'510.9
2017-Jun-24 17:30N 67°03' E 013°51'510.8
2017-Jun-24 17:00N 66°59' E 013°41'510.2
2017-Jun-24 16:30N 66°57' E 013°29'5 9.3
2017-Jun-24 16:00N 66°53' E 013°24'510.4
2017-Jun-24 15:30N 66°49' E 013°16'510.8
2017-Jun-24 15:00N 66°44' E 013°11'1111.0
2017-Jun-24 14:00N 66°33' E 013°03'4 8.5
2017-Jun-24 13:30N 66°29' E 012°60'611.5
2017-Jun-24 12:59N 66°23' E 012°59'510.8
2017-Jun-24 12:30N 66°18' E 012°56'511.1
2017-Jun-24 12:00N 66°13' E 012°53'510.9
2017-Jun-24 11:30N 66°08' E 012°47'611.3
2017-Jun-24 11:00N 66°03' E 012°38'611.2
2017-Jun-24 10:30N 65°59' E 012°29'611.5
2017-Jun-24 10:00N 65°54' E 012°22'611.1
2017-Jun-24 09:30N 65°49' E 012°21'611.0
2017-Jun-24 09:00N 65°43' E 012°17'611.4
2017-Jun-24 08:29N 65°38' E 012°14'510.7
2017-Jun-24 08:00N 65°32' E 012°13'4 9.1
2017-Jun-24 07:30N 65°28' E 012°11'510.4
2017-Jun-24 07:00N 65°23' E 012°06'511.2
2017-Jun-24 06:30N 65°18' E 011°60'510.7
2017-Jun-24 06:00N 65°13' E 011°54'510.4
2017-Jun-24 05:30N 65°08' E 011°50'510.9
2017-Jun-24 05:00N 65°03' E 011°45'510.4
2017-Jun-24 04:30N 64°60' E 011°36'510.3
2017-Jun-24 04:00N 64°56' E 011°27'510.4
2017-Jun-24 03:30N 64°53' E 011°18'510.0
2017-Jun-24 03:00N 64°49' E 011°10'510.5
2017-Jun-24 02:30N 64°45' E 011°01'510.6
2017-Jun-24 02:00N 64°42' E 010°52'510.4
2017-Jun-24 01:30N 64°38' E 010°44'510.4
2017-Jun-24 01:00N 64°33' E 010°38'510.6
2017-Jun-24 00:30N 64°29' E 010°31'510.2
2017-Jun-24 00:00N 64°24' E 010°26'5 9.8
2017-Jun-23 23:30N 64°19' E 010°26'5 9.9
2017-Jun-23 23:00N 64°15' E 010°20'510.5
2017-Jun-23 22:30N 64°12' E 010°11'510.3
2017-Jun-23 21:59N 64°07' E 010°04'510.6
2017-Jun-23 21:30N 64°04' E 009°54'5 9.7
2017-Jun-23 21:00N 64°01' E 009°47'510.4
2017-Jun-23 20:30N 63°55' E 009°47'510.1
2017-Jun-23 20:00N 63°51' E 009°40'510.5
2017-Jun-23 19:30N 63°47' E 009°34'510.3
2017-Jun-23 19:01N 63°42' E 009°31'5 9.7
2017-Jun-23 18:30N 63°37' E 009°28'510.3
2017-Jun-23 18:00N 63°33' E 009°20'611.2
2017-Jun-23 17:30N 63°31' E 009°09'611.1
2017-Jun-23 16:59N 63°28' E 008°58'510.2
2017-Jun-23 16:30N 63°27' E 008°48'510.7
2017-Jun-23 16:00N 63°24' E 008°37'510.5
2017-Jun-23 15:29N 63°22' E 008°26'510.1
2017-Jun-23 15:00N 63°19' E 008°17'1110.4
2017-Jun-23 14:00N 63°13' E 007°58'510.2
2017-Jun-23 13:30N 63°11' E 007°48'510.2
2017-Jun-23 13:00N 63°07' E 007°41'3 6.5
2017-Jun-23 12:29N 63°03' E 007°40'0 0.0
2017-Jun-23 11:59N 63°03' E 007°40'0 0.0
2017-Jun-23 11:29N 63°03' E 007°40'0 0.0
2017-Jun-23 10:59N 63°03' E 007°40'0 0.0
2017-Jun-23 10:29N 63°03' E 007°40'0 0.0
2017-Jun-23 09:59N 63°03' E 007°40'0 0.0
2017-Jun-23 09:29N 63°03' E 007°40'2 4.5
2017-Jun-23 09:00N 63°05' E 007°41'4 7.4
2017-Jun-23 08:30N 63°07' E 007°33'510.0
2017-Jun-23 08:00N 63°04' E 007°24'510.1
2017-Jun-23 07:30N 63°02' E 007°13'510.2
2017-Jun-23 07:00N 63°00' E 007°03'510.1
2017-Jun-23 06:30N 62°58' E 006°53'5 9.6
2017-Jun-23 06:00N 62°54' E 006°46'5 9.9
2017-Jun-23 05:30N 62°50' E 006°40'510.0
2017-Jun-23 05:00N 62°46' E 006°34'5 9.8
2017-Jun-23 04:30N 62°42' E 006°28'510.4
2017-Jun-23 04:00N 62°38' E 006°21'510.5
2017-Jun-23 03:30N 62°34' E 006°13'5 9.9
2017-Jun-23 03:00N 62°30' E 006°09'510.3
2017-Jun-23 02:30N 62°27' E 005°60'5 9.7
2017-Jun-23 02:00N 62°25' E 005°50'5 9.7
2017-Jun-23 01:30N 62°20' E 005°45'4 8.0
2017-Jun-23 01:00N 62°19' E 005°37'5 9.8
2017-Jun-23 00:30N 62°17' E 005°27'5 9.9
2017-Jun-23 00:00N 62°16' E 005°17'510.3
2017-Jun-22 23:30N 62°13' E 005°08'5 8.9
2017-Jun-22 23:00N 62°08' E 005°05'510.2
2017-Jun-22 22:30N 62°04' E 005°08'5 9.9
2017-Jun-22 22:00N 61°59' E 005°09'5 9.3
2017-Jun-22 21:29N 61°54' E 005°09'4 8.3
2017-Jun-22 21:00N 61°52' E 005°16'4 8.0
2017-Jun-22 20:30N 61°49' E 005°10'510.0
2017-Jun-22 20:00N 61°46' E 005°02'5 9.2
2017-Jun-22 19:29N 61°41' E 004°58'5 9.8
2017-Jun-22 18:59N 61°36' E 004°58'5 9.6
2017-Jun-22 18:30N 61°32' E 005°00'510.2
2017-Jun-22 18:00N 61°27' E 004°56'510.9
2017-Jun-22 17:30N 61°23' E 004°49'510.9
2017-Jun-22 17:00N 61°17' E 004°47'510.1
2017-Jun-22 16:30N 61°13' E 004°42'510.4
2017-Jun-22 16:00N 61°08' E 004°45'510.8
2017-Jun-22 15:30N 61°02' E 004°44'510.1
2017-Jun-22 15:00N 60°57' E 004°45'510.8
2017-Jun-22 14:30N 60°52' E 004°46'1010.4
2017-Jun-22 13:30N 60°42' E 004°50'611.3
2017-Jun-22 13:00N 60°36' E 004°54'611.2
2017-Jun-22 12:30N 60°31' E 004°58'611.0
2017-Jun-22 12:00N 60°26' E 005°03'510.0
2017-Jun-22 11:30N 60°23' E 005°10'5 9.0
2017-Jun-22 11:00N 60°18' E 005°12'5 9.8
2017-Jun-22 10:29N 60°13' E 005°10'510.2
2017-Jun-22 10:00N 60°08' E 005°11'510.2
2017-Jun-22 09:30N 60°03' E 005°10'5 9.9
2017-Jun-22 09:00N 59°59' E 005°14'4 8.4
2017-Jun-22 08:30N 59°55' E 005°12'510.4
2017-Jun-22 08:00N 59°50' E 005°17'510.7
2017-Jun-22 07:30N 59°45' E 005°22'4 8.9
2017-Jun-22 07:00N 59°41' E 005°24'5 9.5
2017-Jun-22 06:29N 59°37' E 005°18'5 9.6
2017-Jun-22 06:00N 59°33' E 005°13'510.1
2017-Jun-22 05:30N 59°28' E 005°13'5 9.1
2017-Jun-22 05:00N 59°24' E 005°16'0 0.0
2017-Jun-22 04:29N 59°24' E 005°16'0 0.0
2017-Jun-22 03:59N 59°24' E 005°16'0 0.0
2017-Jun-22 03:29N 59°24' E 005°16'0 0.0
2017-Jun-22 02:59N 59°24' E 005°16'2 3.8
2017-Jun-22 02:31N 59°22' E 005°18'510.7
2017-Jun-22 02:00N 59°17' E 005°20'510.8
2017-Jun-22 01:30N 59°12' E 005°21'5 9.6
2017-Jun-22 01:00N 59°08' E 005°27'5 9.8
2017-Jun-22 00:30N 59°04' E 005°34'510.5
2017-Jun-22 00:01N 59°00' E 005°40'0 0.7
2017-Jun-21 23:28N 58°60' E 005°40'0 0.0
2017-Jun-21 22:58N 58°60' E 005°40'0 0.0
2017-Jun-21 22:28N 58°60' E 005°40'0 0.0
2017-Jun-21 21:58N 58°60' E 005°40'0 0.0
2017-Jun-21 21:30N 58°60' E 005°40'4 7.3
2017-Jun-21 21:00N 59°02' E 005°35'5 9.7
2017-Jun-21 20:30N 58°58' E 005°33'2 4.6
2017-Jun-21 19:58N 58°55' E 005°36'0 0.0
2017-Jun-21 19:28N 58°55' E 005°36'0 0.0
2017-Jun-21 18:58N 58°55' E 005°36'0 0.0
2017-Jun-21 18:28N 58°55' E 005°36'0 0.0
2017-Jun-21 17:58N 58°55' E 005°36'0 0.0
2017-Jun-21 17:28N 58°55' E 005°36'0 0.0
2017-Jun-21 16:58N 58°55' E 005°36'0 0.0
2017-Jun-21 16:28N 58°55' E 005°36'0 0.1
2017-Jun-21 15:58N 58°55' E 005°36'0 0.0
2017-Jun-21 15:28N 58°55' E 005°36'0 0.0
2017-Jun-21 14:59N 58°55' E 005°36'2 4.6
2017-Jun-21 14:30N 58°57' E 005°33'1010.3
2017-Jun-21 13:30N 59°07' E 005°27'5 9.8
2017-Jun-21 13:00N 59°10' E 005°20'510.6
2017-Jun-21 12:30N 59°16' E 005°20'2 2.8
2017-Jun-21 11:58N 59°17' E 005°19'0 0.0
2017-Jun-21 11:28N 59°17' E 005°19'0 0.0
2017-Jun-21 10:58N 59°17' E 005°19'0 0.0
2017-Jun-21 10:28N 59°17' E 005°19'0 0.0
2017-Jun-21 09:58N 59°17' E 005°19'0 0.0
2017-Jun-21 09:28N 59°17' E 005°19'0 0.0
2017-Jun-21 08:58N 59°17' E 005°19'0 0.0
2017-Jun-21 08:28N 59°17' E 005°19'0 0.0
2017-Jun-21 07:58N 59°17' E 005°19'0 0.0
2017-Jun-21 07:28N 59°17' E 005°19'0 0.0
2017-Jun-21 06:58N 59°17' E 005°19'0 0.0
2017-Jun-21 06:28N 59°17' E 005°19'0 0.0
2017-Jun-21 05:58N 59°17' E 005°19'0 0.0
2017-Jun-21 05:28N 59°17' E 005°19'0 0.0
2017-Jun-21 04:58N 59°17' E 005°19'0 0.0
2017-Jun-21 04:28N 59°17' E 005°19'0 0.0
2017-Jun-21 03:58N 59°17' E 005°19'0 0.0
2017-Jun-21 03:28N 59°17' E 005°19'0 0.0
2017-Jun-21 02:58N 59°17' E 005°19'0 0.0
2017-Jun-21 02:28N 59°17' E 005°19'0 0.0
2017-Jun-21 01:58N 59°17' E 005°19'0 0.0
2017-Jun-21 01:28N 59°17' E 005°19'0 0.0
2017-Jun-21 00:58N 59°17' E 005°19'0 0.0
2017-Jun-21 00:28N 59°17' E 005°19'0 0.0
2017-Jun-20 23:58N 59°17' E 005°19'0 0.0
2017-Jun-20 23:28N 59°17' E 005°19'0 0.0
2017-Jun-20 22:58N 59°17' E 005°19'0 0.0
2017-Jun-20 22:28N 59°17' E 005°19'0 0.0
2017-Jun-20 21:58N 59°17' E 005°19'0 0.0
2017-Jun-20 21:28N 59°17' E 005°19'0 0.0
2017-Jun-20 20:58N 59°17' E 005°19'0 0.0
2017-Jun-20 20:28N 59°17' E 005°19'0 0.0
2017-Jun-20 19:58N 59°17' E 005°19'0 0.0
2017-Jun-20 19:28N 59°17' E 005°19'0 0.0
2017-Jun-20 18:58N 59°17' E 005°19'0 0.0
2017-Jun-20 18:28N 59°17' E 005°19'0 0.0
2017-Jun-20 17:58N 59°17' E 005°19'0 0.0
2017-Jun-20 17:28N 59°17' E 005°19'0 0.0
2017-Jun-20 16:58N 59°17' E 005°19'0 0.0
2017-Jun-20 16:28N 59°17' E 005°19'0 0.0
2017-Jun-20 15:58N 59°17' E 005°19'0 0.0
2017-Jun-20 15:28N 59°17' E 005°19'0 0.0
2017-Jun-20 14:58N 59°17' E 005°19'0 0.0
2017-Jun-20 13:58N 59°17' E 005°19'0 0.0
2017-Jun-20 13:28N 59°17' E 005°19'0 0.0
2017-Jun-20 12:58N 59°17' E 005°19'0 0.0
2017-Jun-20 12:28N 59°17' E 005°19'0 0.0
2017-Jun-20 11:58N 59°17' E 005°19'0 0.0
2017-Jun-20 11:25N 59°17' E 005°19'0 0.0
2017-Jun-20 10:58N 59°17' E 005°19'0 0.0
2017-Jun-20 10:28N 59°17' E 005°19'0 0.0
2017-Jun-20 09:58N 59°17' E 005°19'0 0.0
2017-Jun-20 09:28N 59°17' E 005°19'0 0.0
2017-Jun-20 08:58N 59°17' E 005°19'0 0.0
2017-Jun-20 08:28N 59°17' E 005°19'0 0.0
2017-Jun-20 07:58N 59°17' E 005°19'0 0.0
2017-Jun-20 07:28N 59°17' E 005°19'0 0.0
2017-Jun-20 06:58N 59°17' E 005°19'0 0.0
2017-Jun-20 06:28N 59°17' E 005°19'0 0.0
2017-Jun-20 05:58N 59°17' E 005°19'0 0.0
2017-Jun-20 05:28N 59°17' E 005°19'0 0.0
2017-Jun-20 04:58N 59°17' E 005°19'0 0.0
2017-Jun-20 04:28N 59°17' E 005°19'0 0.0
2017-Jun-20 03:58N 59°17' E 005°19'0 0.0
2017-Jun-20 03:28N 59°17' E 005°19'0 0.0
2017-Jun-20 02:58N 59°17' E 005°19'0 0.0
2017-Jun-20 02:28N 59°17' E 005°19'0 0.0
2017-Jun-20 01:58N 59°17' E 005°19'0 0.0
2017-Jun-20 01:28N 59°17' E 005°19'0 0.0
2017-Jun-20 00:58N 59°17' E 005°19'0 0.0
2017-Jun-20 00:28N 59°17' E 005°19'0 0.0
2017-Jun-19 23:58N 59°17' E 005°19'0 0.0
2017-Jun-19 23:28N 59°17' E 005°19'0 0.0
2017-Jun-19 22:58N 59°17' E 005°19'0 0.0
2017-Jun-19 22:28N 59°17' E 005°19'0 0.0
2017-Jun-19 21:58N 59°17' E 005°19'0 0.0
2017-Jun-19 21:28N 59°17' E 005°19'0 0.0
2017-Jun-19 20:58N 59°17' E 005°19'0 0.0
2017-Jun-19 20:28N 59°17' E 005°19'0 0.0
2017-Jun-19 19:58N 59°17' E 005°19'0 0.0
2017-Jun-19 19:28N 59°17' E 005°19'0 0.0
2017-Jun-19 18:58N 59°17' E 005°19'0 0.0
2017-Jun-19 18:28N 59°17' E 005°19'0 0.0
2017-Jun-19 17:58N 59°17' E 005°19'0 0.0
2017-Jun-19 17:28N 59°17' E 005°19'0 0.0
2017-Jun-19 16:58N 59°17' E 005°19'0 0.0
2017-Jun-19 16:28N 59°17' E 005°19'0 0.0
2017-Jun-19 15:58N 59°17' E 005°19'0 0.0
2017-Jun-19 15:28N 59°17' E 005°19'0 0.0
2017-Jun-19 14:58N 59°17' E 005°19'0 0.0
2017-Jun-19 13:58N 59°17' E 005°19'0 0.0
2017-Jun-19 13:28N 59°17' E 005°19'0 0.0
2017-Jun-19 12:58N 59°17' E 005°19'0 0.0
2017-Jun-19 12:28N 59°17' E 005°19'0 0.0
2017-Jun-19 11:58N 59°17' E 005°19'0 0.0
2017-Jun-19 11:28N 59°17' E 005°19'0 0.0
2017-Jun-19 10:58N 59°17' E 005°19'0 0.0
2017-Jun-19 10:28N 59°17' E 005°19'0 0.0
2017-Jun-19 09:58N 59°17' E 005°19'0 0.0
2017-Jun-19 09:28N 59°17' E 005°19'0 0.0
2017-Jun-19 08:58N 59°17' E 005°19'0 0.0
2017-Jun-19 08:28N 59°17' E 005°19'0 0.0
2017-Jun-19 07:58N 59°17' E 005°19'0 0.0
2017-Jun-19 07:28N 59°17' E 005°19'0 0.0
2017-Jun-19 06:58N 59°17' E 005°19'0 0.0
2017-Jun-19 06:28N 59°17' E 005°19'0 0.0
2017-Jun-19 05:58N 59°17' E 005°19'0 0.0
2017-Jun-19 05:28N 59°17' E 005°19'0 0.0
2017-Jun-19 04:58N 59°17' E 005°19'0 0.0
2017-Jun-19 04:28N 59°17' E 005°19'0 0.0
2017-Jun-19 03:58N 59°17' E 005°19'0 0.0
2017-Jun-19 03:28N 59°17' E 005°19'0 0.0
2017-Jun-19 02:58N 59°17' E 005°19'0 0.0
2017-Jun-19 02:28N 59°17' E 005°19'0 0.0
2017-Jun-19 01:58N 59°17' E 005°19'0 0.0
2017-Jun-19 01:28N 59°17' E 005°19'0 0.0
2017-Jun-19 00:58N 59°17' E 005°19'0 0.0
2017-Jun-19 00:28N 59°17' E 005°19'0 0.0
2017-Jun-18 23:58N 59°17' E 005°19'0 0.0
2017-Jun-18 23:28N 59°17' E 005°19'0 0.0
2017-Jun-18 22:58N 59°17' E 005°19'0 0.0
2017-Jun-18 22:28N 59°17' E 005°19'0 0.0
2017-Jun-18 21:58N 59°17' E 005°19'0 0.0
2017-Jun-18 21:28N 59°17' E 005°19'0 0.0
2017-Jun-18 20:58N 59°17' E 005°19'0 0.0
2017-Jun-18 20:28N 59°17' E 005°19'0 0.0
2017-Jun-18 19:58N 59°17' E 005°19'0 0.0
2017-Jun-18 19:28N 59°17' E 005°19'0 0.0
2017-Jun-18 18:58N 59°17' E 005°19'0 0.0
2017-Jun-18 18:28N 59°17' E 005°19'0 0.0
2017-Jun-18 17:58N 59°17' E 005°19'0 0.0
2017-Jun-18 17:28N 59°17' E 005°19'0 0.0
2017-Jun-18 16:58N 59°17' E 005°19'0 0.0
2017-Jun-18 16:28N 59°17' E 005°19'0 0.0
2017-Jun-18 15:58N 59°17' E 005°19'0 0.0
2017-Jun-18 15:28N 59°17' E 005°19'0 0.0
2017-Jun-18 14:58N 59°17' E 005°19'0 0.0
2017-Jun-18 13:58N 59°17' E 005°19'0 0.0
2017-Jun-18 13:28N 59°17' E 005°19'0 0.0
2017-Jun-18 12:58N 59°17' E 005°19'0 0.0
2017-Jun-18 12:28N 59°17' E 005°19'0 0.0
2017-Jun-18 11:58N 59°17' E 005°19'0 0.0
2017-Jun-18 11:28N 59°17' E 005°19'0 0.0
2017-Jun-18 10:58N 59°17' E 005°19'0 0.0
2017-Jun-18 10:28N 59°17' E 005°19'0 0.0
2017-Jun-18 09:58N 59°17' E 005°19'0 0.0
2017-Jun-18 09:28N 59°17' E 005°19'0 0.0
2017-Jun-18 08:58N 59°17' E 005°19'0 0.0
2017-Jun-18 08:28N 59°17' E 005°19'0 0.0
2017-Jun-18 07:58N 59°17' E 005°19'0 0.0
2017-Jun-18 07:28N 59°17' E 005°19'0 0.0
2017-Jun-18 06:58N 59°17' E 005°19'0 0.0
2017-Jun-18 06:28N 59°17' E 005°19'0 0.0
2017-Jun-18 05:58N 59°17' E 005°19'0 0.0
2017-Jun-18 05:28N 59°17' E 005°19'0 0.0
2017-Jun-18 04:58N 59°17' E 005°19'0 0.0
2017-Jun-18 04:28N 59°17' E 005°19'0 0.0
2017-Jun-18 03:58N 59°17' E 005°19'0 0.0
2017-Jun-18 03:28N 59°17' E 005°19'0 0.0
2017-Jun-18 02:58N 59°17' E 005°19'0 0.0
2017-Jun-18 02:28N 59°17' E 005°19'0 0.0
2017-Jun-18 01:58N 59°17' E 005°19'0 0.0
2017-Jun-18 01:28N 59°17' E 005°19'0 0.0
2017-Jun-18 00:58N 59°17' E 005°19'0 0.0
2017-Jun-18 00:28N 59°17' E 005°19'0 0.0
2017-Jun-17 23:58N 59°17' E 005°19'0 0.0
2017-Jun-17 23:28N 59°17' E 005°19'0 0.0
2017-Jun-17 22:58N 59°17' E 005°19'0 0.0
2017-Jun-17 22:28N 59°17' E 005°19'0 0.0
2017-Jun-17 21:58N 59°17' E 005°19'0 0.0
2017-Jun-17 21:28N 59°17' E 005°19'0 0.0
2017-Jun-17 20:58N 59°17' E 005°19'0 0.0
2017-Jun-17 20:28N 59°17' E 005°19'0 0.0
2017-Jun-17 19:58N 59°17' E 005°19'0 0.0
2017-Jun-17 19:28N 59°17' E 005°19'0 0.0
2017-Jun-17 18:58N 59°17' E 005°19'0 0.0
2017-Jun-17 18:28N 59°17' E 005°19'0 0.0
2017-Jun-17 17:58N 59°17' E 005°19'0 0.0
2017-Jun-17 17:28N 59°17' E 005°19'0 0.0
2017-Jun-17 16:58N 59°17' E 005°19'0 0.0
2017-Jun-17 16:28N 59°17' E 005°19'0 0.0
2017-Jun-17 15:58N 59°17' E 005°19'0 0.0
2017-Jun-17 15:28N 59°17' E 005°19'0 0.0
2017-Jun-17 14:58N 59°17' E 005°19'0 0.0
2017-Jun-17 13:58N 59°17' E 005°19'  
Track history (hours):
 
Tides and Currents Weather Stations Pressure Air Temp Water Temp Dewpoint Dewpoint Depression Visibility Wind Speed Wind Dir Waves Ship Positions

Dart

Last reported at 2017-Jun-27 13:30 UTC. Time now 2017-Jun-27 13:52 UTC.
Position N 70°26' E 022°05'.

Length 66 m; draft 4.4 m.

Type: Tanker. MMSI: 219416000.

Date/timePositionNaut miles runAvg speedWind from/ knotsBaromVisibWave heightAir tempDewpointWater temp
2017-Jun-27 13:30N 70°26' E 022°05'5 9.1
2017-Jun-27 13:00N 70°27' E 022°18'5 9.6
2017-Jun-27 12:30N 70°29' E 022°31'5 9.7
2017-Jun-27 12:00N 70°30' E 022°45'5 9.4
2017-Jun-27 11:30N 70°31' E 022°58'5 9.7
2017-Jun-27 11:01N 70°35' E 023°09'510.4
2017-Jun-27 10:30N 70°38' E 023°22'5 9.1
2017-Jun-27 10:00N 70°37' E 023°36'1 2.8
2017-Jun-27 09:30N 70°38' E 023°39'0 0.0
2017-Jun-27 09:00N 70°38' E 023°39'0 0.0
2017-Jun-27 08:30N 70°38' E 023°39'0 0.0
2017-Jun-27 08:00N 70°38' E 023°39'0 0.0
2017-Jun-27 07:30N 70°38' E 023°39'0 0.0
2017-Jun-27 07:00N 70°38' E 023°39'0 0.0
2017-Jun-27 06:30N 70°38' E 023°39'0 0.0
2017-Jun-27 06:00N 70°38' E 023°39'0 0.0
2017-Jun-27 05:30N 70°38' E 023°39'0 0.0
2017-Jun-27 05:00N 70°38' E 023°39'0 0.0
2017-Jun-27 04:30N 70°38' E 023°39'0 0.0
2017-Jun-27 04:00N 70°38' E 023°39'0 0.0
2017-Jun-27 03:30N 70°38' E 023°39'0 0.0
2017-Jun-27 03:00N 70°38' E 023°39'0 0.0
2017-Jun-27 02:30N 70°38' E 023°39'0 0.0
2017-Jun-27 02:00N 70°38' E 023°39'0 0.0
2017-Jun-27 01:30N 70°38' E 023°39'0 0.0
2017-Jun-27 01:00N 70°38' E 023°39'0 0.0
2017-Jun-27 00:30N 70°38' E 023°39'0 0.0
2017-Jun-27 00:00N 70°38' E 023°39'0 0.0
2017-Jun-26 23:30N 70°38' E 023°39'0 0.0
2017-Jun-26 23:00N 70°38' E 023°39'0 0.0
2017-Jun-26 22:30N 70°38' E 023°39'0 0.0
2017-Jun-26 22:00N 70°38' E 023°39'0 0.0
2017-Jun-26 21:30N 70°38' E 023°39'0 0.0
2017-Jun-26 21:00N 70°38' E 023°39'0 0.0
2017-Jun-26 20:30N 70°38' E 023°39'0 0.0
2017-Jun-26 20:00N 70°38' E 023°39'0 0.0
2017-Jun-26 19:30N 70°38' E 023°39'0 0.0
2017-Jun-26 19:00N 70°38' E 023°39'0 0.0
2017-Jun-26 18:30N 70°38' E 023°39'0 0.0
2017-Jun-26 18:00N 70°38' E 023°39'0 0.0
2017-Jun-26 17:30N 70°38' E 023°39'0 0.0
2017-Jun-26 17:00N 70°38' E 023°39'0 0.0
2017-Jun-26 16:30N 70°38' E 023°39'0 0.0
2017-Jun-26 16:00N 70°38' E 023°39'0 0.0
2017-Jun-26 15:30N 70°38' E 023°39'0 0.0
2017-Jun-26 15:00N 70°38' E 023°39'0 0.0
2017-Jun-26 14:30N 70°38' E 023°39'0 0.0
2017-Jun-26 13:30N 70°38' E 023°39'0 0.0
2017-Jun-26 12:54N 70°38' E 023°39'0 0.0
2017-Jun-26 12:30N 70°38' E 023°39'0 0.1
2017-Jun-26 08:23N 70°38' E 023°39'0 0.0
2017-Jun-26 07:59N 70°38' E 023°39'0 0.0
2017-Jun-26 07:29N 70°38' E 023°39'0 0.0
2017-Jun-26 06:59N 70°38' E 023°39'0 0.0
2017-Jun-26 06:29N 70°38' E 023°39'0 0.0
2017-Jun-26 05:59N 70°38' E 023°39'0 0.0
2017-Jun-26 05:29N 70°38' E 023°39'0 0.0
2017-Jun-26 04:59N 70°38' E 023°39'0 0.0
2017-Jun-26 04:29N 70°38' E 023°39'0 0.0
2017-Jun-26 03:59N 70°38' E 023°39'0 0.0
2017-Jun-26 03:29N 70°38' E 023°39'0 0.0
2017-Jun-26 02:59N 70°38' E 023°39'0 0.0
2017-Jun-26 02:29N 70°38' E 023°39'0 0.0
2017-Jun-26 01:59N 70°38' E 023°39'0 0.0
2017-Jun-26 01:29N 70°38' E 023°39'0 0.6
2017-Jun-26 01:00N 70°37' E 023°38'5 9.0
2017-Jun-26 00:30N 70°38' E 023°25'611.5
2017-Jun-26 00:00N 70°35' E 023°11'510.3
2017-Jun-25 23:30N 70°31' E 022°60'510.5
2017-Jun-25 23:00N 70°29' E 022°45'510.0
2017-Jun-25 22:30N 70°28' E 022°31'510.0
2017-Jun-25 22:00N 70°27' E 022°16'510.5
2017-Jun-25 21:30N 70°25' E 022°01'510.2
2017-Jun-25 21:00N 70°24' E 021°46'510.1
2017-Jun-25 20:30N 70°21' E 021°34'510.8
2017-Jun-25 20:00N 70°17' E 021°23'510.0
2017-Jun-25 19:30N 70°14' E 021°11'510.2
2017-Jun-25 19:00N 70°10' E 021°03'510.3
2017-Jun-25 18:30N 70°05' E 020°57'510.1
2017-Jun-25 18:00N 70°02' E 020°45'510.0
2017-Jun-25 17:30N 70°01' E 020°31'510.4
2017-Jun-25 17:00N 69°59' E 020°17'510.0
2017-Jun-25 16:30N 69°56' E 020°05'510.0
2017-Jun-25 16:00N 69°53' E 019°54'510.3
2017-Jun-25 15:30N 69°50' E 019°42'510.2
2017-Jun-25 14:59N 69°48' E 019°27'510.2
2017-Jun-25 14:30N 69°47' E 019°14'9 9.4
2017-Jun-25 13:30N 69°39' E 018°59'5 9.6
2017-Jun-25 13:00N 69°35' E 018°51'510.6
2017-Jun-25 12:30N 69°33' E 018°38'610.9
2017-Jun-25 12:00N 69°30' E 018°23'510.7
2017-Jun-25 11:30N 69°28' E 018°09'4 9.1
2017-Jun-25 11:00N 69°24' E 018°06'4 8.5
2017-Jun-25 10:30N 69°20' E 018°02'5 9.1
2017-Jun-25 10:00N 69°16' E 017°58'5 9.2
2017-Jun-25 09:30N 69°11' E 018°01'510.2
2017-Jun-25 09:00N 69°09' E 017°48'510.5
2017-Jun-25 08:30N 69°07' E 017°35'510.3
2017-Jun-25 08:00N 69°04' E 017°22'510.5
2017-Jun-25 07:30N 68°60' E 017°15'510.7
2017-Jun-25 07:00N 68°56' E 017°04'510.4
2017-Jun-25 06:30N 68°51' E 016°57'510.2
2017-Jun-25 06:00N 68°47' E 016°50'510.2
2017-Jun-25 05:30N 68°43' E 016°43'510.1
2017-Jun-25 05:00N 68°38' E 016°36'5 9.9
2017-Jun-25 04:30N 68°34' E 016°31'5 9.1
2017-Jun-25 04:00N 68°33' E 016°18'5 9.7
2017-Jun-25 03:30N 68°30' E 016°08'510.0
2017-Jun-25 03:00N 68°25' E 016°04'510.1
2017-Jun-25 02:30N 68°21' E 015°58'510.1
2017-Jun-25 02:00N 68°17' E 015°48'510.0
2017-Jun-25 01:30N 68°14' E 015°38'510.0
2017-Jun-25 01:00N 68°11' E 015°28'510.7
2017-Jun-25 00:30N 68°07' E 015°17'510.7
2017-Jun-25 00:00N 68°04' E 015°06'510.7
2017-Jun-24 23:30N 67°60' E 014°56'511.0
2017-Jun-24 23:00N 67°56' E 014°45'611.5
2017-Jun-24 22:30N 67°52' E 014°34'510.7
2017-Jun-24 22:00N 67°47' E 014°32'511.1
2017-Jun-24 21:30N 67°42' E 014°31'511.0
2017-Jun-24 21:00N 67°36' E 014°31'610.7
2017-Jun-24 20:30N 67°31' E 014°30'510.8
2017-Jun-24 20:00N 67°25' E 014°28'511.0
2017-Jun-24 19:30N 67°21' E 014°21'510.8
2017-Jun-24 19:00N 67°16' E 014°13'510.6
2017-Jun-24 18:30N 67°12' E 014°06'510.7
2017-Jun-24 18:00N 67°07' E 013°60'510.9
2017-Jun-24 17:30N 67°03' E 013°51'510.8
2017-Jun-24 17:00N 66°59' E 013°41'510.2
2017-Jun-24 16:30N 66°57' E 013°29'5 9.3
2017-Jun-24 16:00N 66°53' E 013°24'510.4
2017-Jun-24 15:30N 66°49' E 013°16'510.8
2017-Jun-24 15:00N 66°44' E 013°11'1111.0
2017-Jun-24 14:00N 66°33' E 013°03'4 8.5
2017-Jun-24 13:30N 66°29' E 012°60'611.5
2017-Jun-24 12:59N 66°23' E 012°59'510.8
2017-Jun-24 12:30N 66°18' E 012°56'511.1
2017-Jun-24 12:00N 66°13' E 012°53'510.9
2017-Jun-24 11:30N 66°08' E 012°47'611.3
2017-Jun-24 11:00N 66°03' E 012°38'611.2
2017-Jun-24 10:30N 65°59' E 012°29'611.5
2017-Jun-24 10:00N 65°54' E 012°22'611.1
2017-Jun-24 09:30N 65°49' E 012°21'611.0
2017-Jun-24 09:00N 65°43' E 012°17'611.4
2017-Jun-24 08:29N 65°38' E 012°14'510.7
2017-Jun-24 08:00N 65°32' E 012°13'4 9.1
2017-Jun-24 07:30N 65°28' E 012°11'510.4
2017-Jun-24 07:00N 65°23' E 012°06'511.2
2017-Jun-24 06:30N 65°18' E 011°60'510.7
2017-Jun-24 06:00N 65°13' E 011°54'510.4
2017-Jun-24 05:30N 65°08' E 011°50'510.9
2017-Jun-24 05:00N 65°03' E 011°45'510.4
2017-Jun-24 04:30N 64°60' E 011°36'510.3
2017-Jun-24 04:00N 64°56' E 011°27'510.4
2017-Jun-24 03:30N 64°53' E 011°18'510.0
2017-Jun-24 03:00N 64°49' E 011°10'510.5
2017-Jun-24 02:30N 64°45' E 011°01'510.6
2017-Jun-24 02:00N 64°42' E 010°52'510.4
2017-Jun-24 01:30N 64°38' E 010°44'510.4
2017-Jun-24 01:00N 64°33' E 010°38'510.6
2017-Jun-24 00:30N 64°29' E 010°31'510.2
2017-Jun-24 00:00N 64°24' E 010°26'5 9.8
2017-Jun-23 23:30N 64°19' E 010°26'5 9.9
2017-Jun-23 23:00N 64°15' E 010°20'510.5
2017-Jun-23 22:30N 64°12' E 010°11'510.3
2017-Jun-23 21:59N 64°07' E 010°04'510.6
2017-Jun-23 21:30N 64°04' E 009°54'5 9.7
2017-Jun-23 21:00N 64°01' E 009°47'510.4
2017-Jun-23 20:30N 63°55' E 009°47'510.1
2017-Jun-23 20:00N 63°51' E 009°40'510.5
2017-Jun-23 19:30N 63°47' E 009°34'510.3
2017-Jun-23 19:01N 63°42' E 009°31'5 9.7
2017-Jun-23 18:30N 63°37' E 009°28'510.3
2017-Jun-23 18:00N 63°33' E 009°20'611.2
2017-Jun-23 17:30N 63°31' E 009°09'611.1
2017-Jun-23 16:59N 63°28' E 008°58'510.2
2017-Jun-23 16:30N 63°27' E 008°48'510.7
2017-Jun-23 16:00N 63°24' E 008°37'510.5
2017-Jun-23 15:29N 63°22' E 008°26'510.1
2017-Jun-23 15:00N 63°19' E 008°17'1110.4
2017-Jun-23 14:00N 63°13' E 007°58'510.2
2017-Jun-23 13:30N 63°11' E 007°48'510.2
2017-Jun-23 13:00N 63°07' E 007°41'3 6.5
2017-Jun-23 12:29N 63°03' E 007°40'0 0.0
2017-Jun-23 11:59N 63°03' E 007°40'0 0.0
2017-Jun-23 11:29N 63°03' E 007°40'0 0.0
2017-Jun-23 10:59N 63°03' E 007°40'0 0.0
2017-Jun-23 10:29N 63°03' E 007°40'0 0.0
2017-Jun-23 09:59N 63°03' E 007°40'0 0.0
2017-Jun-23 09:29N 63°03' E 007°40'2 4.5
2017-Jun-23 09:00N 63°05' E 007°41'4 7.4
2017-Jun-23 08:30N 63°07' E 007°33'510.0
2017-Jun-23 08:00N 63°04' E 007°24'510.1
2017-Jun-23 07:30N 63°02' E 007°13'510.2
2017-Jun-23 07:00N 63°00' E 007°03'510.1
2017-Jun-23 06:30N 62°58' E 006°53'5 9.6
2017-Jun-23 06:00N 62°54' E 006°46'5 9.9
2017-Jun-23 05:30N 62°50' E 006°40'510.0
2017-Jun-23 05:00N 62°46' E 006°34'5 9.8
2017-Jun-23 04:30N 62°42' E 006°28'510.4
2017-Jun-23 04:00N 62°38' E 006°21'510.5
2017-Jun-23 03:30N 62°34' E 006°13'5 9.9
2017-Jun-23 03:00N 62°30' E 006°09'510.3
2017-Jun-23 02:30N 62°27' E 005°60'5 9.7
2017-Jun-23 02:00N 62°25' E 005°50'5 9.7
2017-Jun-23 01:30N 62°20' E 005°45'4 8.0
2017-Jun-23 01:00N 62°19' E 005°37'5 9.8
2017-Jun-23 00:30N 62°17' E 005°27'5 9.9
2017-Jun-23 00:00N 62°16' E 005°17'510.3
2017-Jun-22 23:30N 62°13' E 005°08'5 8.9
2017-Jun-22 23:00N 62°08' E 005°05'510.2
2017-Jun-22 22:30N 62°04' E 005°08'5 9.9
2017-Jun-22 22:00N 61°59' E 005°09'5 9.3
2017-Jun-22 21:29N 61°54' E 005°09'4 8.3
2017-Jun-22 21:00N 61°52' E 005°16'4 8.0
2017-Jun-22 20:30N 61°49' E 005°10'510.0
2017-Jun-22 20:00N 61°46' E 005°02'5 9.2
2017-Jun-22 19:29N 61°41' E 004°58'5 9.8
2017-Jun-22 18:59N 61°36' E 004°58'5 9.6
2017-Jun-22 18:30N 61°32' E 005°00'510.2
2017-Jun-22 18:00N 61°27' E 004°56'510.9
2017-Jun-22 17:30N 61°23' E 004°49'510.9
2017-Jun-22 17:00N 61°17' E 004°47'510.1
2017-Jun-22 16:30N 61°13' E 004°42'510.4
2017-Jun-22 16:00N 61°08' E 004°45'510.8
2017-Jun-22 15:30N 61°02' E 004°44'510.1
2017-Jun-22 15:00N 60°57' E 004°45'510.8
2017-Jun-22 14:30N 60°52' E 004°46'1010.4
2017-Jun-22 13:30N 60°42' E 004°50'611.3
2017-Jun-22 13:00N 60°36' E 004°54'611.2
2017-Jun-22 12:30N 60°31' E 004°58'611.0
2017-Jun-22 12:00N 60°26' E 005°03'510.0
2017-Jun-22 11:30N 60°23' E 005°10'5 9.0
2017-Jun-22 11:00N 60°18' E 005°12'5 9.8
2017-Jun-22 10:29N 60°13' E 005°10'510.2
2017-Jun-22 10:00N 60°08' E 005°11'510.2
2017-Jun-22 09:30N 60°03' E 005°10'5 9.9
2017-Jun-22 09:00N 59°59' E 005°14'4 8.4
2017-Jun-22 08:30N 59°55' E 005°12'510.4
2017-Jun-22 08:00N 59°50' E 005°17'510.7
2017-Jun-22 07:30N 59°45' E 005°22'4 8.9
2017-Jun-22 07:00N 59°41' E 005°24'5 9.5
2017-Jun-22 06:29N 59°37' E 005°18'5 9.6
2017-Jun-22 06:00N 59°33' E 005°13'510.1
2017-Jun-22 05:30N 59°28' E 005°13'5 9.1
2017-Jun-22 05:00N 59°24' E 005°16'0 0.0
2017-Jun-22 04:29N 59°24' E 005°16'0 0.0
2017-Jun-22 03:59N 59°24' E 005°16'0 0.0
2017-Jun-22 03:29N 59°24' E 005°16'0 0.0
2017-Jun-22 02:59N 59°24' E 005°16'2 3.8
2017-Jun-22 02:31N 59°22' E 005°18'510.7
2017-Jun-22 02:00N 59°17' E 005°20'510.8
2017-Jun-22 01:30N 59°12' E 005°21'5 9.6
2017-Jun-22 01:00N 59°08' E 005°27'5 9.8
2017-Jun-22 00:30N 59°04' E 005°34'510.5
2017-Jun-22 00:01N 59°00' E 005°40'0 0.7
2017-Jun-21 23:28N 58°60' E 005°40'0 0.0
2017-Jun-21 22:58N 58°60' E 005°40'0 0.0
2017-Jun-21 22:28N 58°60' E 005°40'0 0.0
2017-Jun-21 21:58N 58°60' E 005°40'0 0.0
2017-Jun-21 21:30N 58°60' E 005°40'4 7.3
2017-Jun-21 21:00N 59°02' E 005°35'5 9.7
2017-Jun-21 20:30N 58°58' E 005°33'2 4.6
2017-Jun-21 19:58N 58°55' E 005°36'0 0.0
2017-Jun-21 19:28N 58°55' E 005°36'0 0.0
2017-Jun-21 18:58N 58°55' E 005°36'0 0.0
2017-Jun-21 18:28N 58°55' E 005°36'0 0.0
2017-Jun-21 17:58N 58°55' E 005°36'0 0.0
2017-Jun-21 17:28N 58°55' E 005°36'0 0.0
2017-Jun-21 16:58N 58°55' E 005°36'0 0.0
2017-Jun-21 16:28N 58°55' E 005°36'0 0.1
2017-Jun-21 15:58N 58°55' E 005°36'0 0.0
2017-Jun-21 15:28N 58°55' E 005°36'0 0.0
2017-Jun-21 14:59N 58°55' E 005°36'2 4.6
2017-Jun-21 14:30N 58°57' E 005°33'1010.3
2017-Jun-21 13:30N 59°07' E 005°27'5 9.8
2017-Jun-21 13:00N 59°10' E 005°20'510.6
2017-Jun-21 12:30N 59°16' E 005°20'2 2.8
2017-Jun-21 11:58N 59°17' E 005°19'0 0.0
2017-Jun-21 11:28N 59°17' E 005°19'0 0.0
2017-Jun-21 10:58N 59°17' E 005°19'0 0.0
2017-Jun-21 10:28N 59°17' E 005°19'0 0.0
2017-Jun-21 09:58N 59°17' E 005°19'0 0.0
2017-Jun-21 09:28N 59°17' E 005°19'0 0.0
2017-Jun-21 08:58N 59°17' E 005°19'0 0.0
2017-Jun-21 08:28N 59°17' E 005°19'0 0.0
2017-Jun-21 07:58N 59°17' E 005°19'0 0.0
2017-Jun-21 07:28N 59°17' E 005°19'0 0.0
2017-Jun-21 06:58N 59°17' E 005°19'0 0.0
2017-Jun-21 06:28N 59°17' E 005°19'0 0.0
2017-Jun-21 05:58N 59°17' E 005°19'0 0.0
2017-Jun-21 05:28N 59°17' E 005°19'0 0.0
2017-Jun-21 04:58N 59°17' E 005°19'0 0.0
2017-Jun-21 04:28N 59°17' E 005°19'0 0.0
2017-Jun-21 03:58N 59°17' E 005°19'0 0.0
2017-Jun-21 03:28N 59°17' E 005°19'0 0.0
2017-Jun-21 02:58N 59°17' E 005°19'0 0.0
2017-Jun-21 02:28N 59°17' E 005°19'0 0.0
2017-Jun-21 01:58N 59°17' E 005°19'0 0.0
2017-Jun-21 01:28N 59°17' E 005°19'0 0.0
2017-Jun-21 00:58N 59°17' E 005°19'0 0.0
2017-Jun-21 00:28N 59°17' E 005°19'0 0.0
2017-Jun-20 23:58N 59°17' E 005°19'0 0.0
2017-Jun-20 23:28N 59°17' E 005°19'0 0.0
2017-Jun-20 22:58N 59°17' E 005°19'0 0.0
2017-Jun-20 22:28N 59°17' E 005°19'0 0.0
2017-Jun-20 21:58N 59°17' E 005°19'0 0.0
2017-Jun-20 21:28N 59°17' E 005°19'0 0.0
2017-Jun-20 20:58N 59°17' E 005°19'0 0.0
2017-Jun-20 20:28N 59°17' E 005°19'0 0.0
2017-Jun-20 19:58N 59°17' E 005°19'0 0.0
2017-Jun-20 19:28N 59°17' E 005°19'0 0.0
2017-Jun-20 18:58N 59°17' E 005°19'0 0.0
2017-Jun-20 18:28N 59°17' E 005°19'0 0.0
2017-Jun-20 17:58N 59°17' E 005°19'0 0.0
2017-Jun-20 17:28N 59°17' E 005°19'0 0.0
2017-Jun-20 16:58N 59°17' E 005°19'0 0.0
2017-Jun-20 16:28N 59°17' E 005°19'0 0.0
2017-Jun-20 15:58N 59°17' E 005°19'0 0.0
2017-Jun-20 15:28N 59°17' E 005°19'0 0.0
2017-Jun-20 14:58N 59°17' E 005°19'0 0.0
2017-Jun-20 13:58N 59°17' E 005°19'0 0.0
2017-Jun-20 13:28N 59°17' E 005°19'0 0.0
2017-Jun-20 12:58N 59°17' E 005°19'0 0.0
2017-Jun-20 12:28N 59°17' E 005°19'0 0.0
2017-Jun-20 11:58N 59°17' E 005°19'0 0.0
2017-Jun-20 11:25N 59°17' E 005°19'0 0.0
2017-Jun-20 10:58N 59°17' E 005°19'0 0.0
2017-Jun-20 10:28N 59°17' E 005°19'0 0.0
2017-Jun-20 09:58N 59°17' E 005°19'0 0.0
2017-Jun-20 09:28N 59°17' E 005°19'0 0.0
2017-Jun-20 08:58N 59°17' E 005°19'0 0.0
2017-Jun-20 08:28N 59°17' E 005°19'0 0.0
2017-Jun-20 07:58N 59°17' E 005°19'0 0.0
2017-Jun-20 07:28N 59°17' E 005°19'0 0.0
2017-Jun-20 06:58N 59°17' E 005°19'0 0.0
2017-Jun-20 06:28N 59°17' E 005°19'0 0.0
2017-Jun-20 05:58N 59°17' E 005°19'0 0.0
2017-Jun-20 05:28N 59°17' E 005°19'0 0.0
2017-Jun-20 04:58N 59°17' E 005°19'0 0.0
2017-Jun-20 04:28N 59°17' E 005°19'0 0.0
2017-Jun-20 03:58N 59°17' E 005°19'0 0.0
2017-Jun-20 03:28N 59°17' E 005°19'0 0.0
2017-Jun-20 02:58N 59°17' E 005°19'0 0.0
2017-Jun-20 02:28N 59°17' E 005°19'0 0.0
2017-Jun-20 01:58N 59°17' E 005°19'0 0.0
2017-Jun-20 01:28N 59°17' E 005°19'0 0.0
2017-Jun-20 00:58N 59°17' E 005°19'0 0.0
2017-Jun-20 00:28N 59°17' E 005°19'0 0.0
2017-Jun-19 23:58N 59°17' E 005°19'0 0.0
2017-Jun-19 23:28N 59°17' E 005°19'0 0.0
2017-Jun-19 22:58N 59°17' E 005°19'0 0.0
2017-Jun-19 22:28N 59°17' E 005°19'0 0.0
2017-Jun-19 21:58N 59°17' E 005°19'0 0.0
2017-Jun-19 21:28N 59°17' E 005°19'0 0.0
2017-Jun-19 20:58N 59°17' E 005°19'0 0.0
2017-Jun-19 20:28N 59°17' E 005°19'0 0.0
2017-Jun-19 19:58N 59°17' E 005°19'0 0.0
2017-Jun-19 19:28N 59°17' E 005°19'0 0.0
2017-Jun-19 18:58N 59°17' E 005°19'0 0.0
2017-Jun-19 18:28N 59°17' E 005°19'0 0.0
2017-Jun-19 17:58N 59°17' E 005°19'0 0.0
2017-Jun-19 17:28N 59°17' E 005°19'0 0.0
2017-Jun-19 16:58N 59°17' E 005°19'0 0.0
2017-Jun-19 16:28N 59°17' E 005°19'0 0.0
2017-Jun-19 15:58N 59°17' E 005°19'0 0.0
2017-Jun-19 15:28N 59°17' E 005°19'0 0.0
2017-Jun-19 14:58N 59°17' E 005°19'0 0.0
2017-Jun-19 13:58N 59°17' E 005°19'0 0.0
2017-Jun-19 13:28N 59°17' E 005°19'0 0.0
2017-Jun-19 12:58N 59°17' E 005°19'0 0.0
2017-Jun-19 12:28N 59°17' E 005°19'0 0.0
2017-Jun-19 11:58N 59°17' E 005°19'0 0.0
2017-Jun-19 11:28N 59°17' E 005°19'0 0.0
2017-Jun-19 10:58N 59°17' E 005°19'0 0.0
2017-Jun-19 10:28N 59°17' E 005°19'0 0.0
2017-Jun-19 09:58N 59°17' E 005°19'0 0.0
2017-Jun-19 09:28N 59°17' E 005°19'0 0.0
2017-Jun-19 08:58N 59°17' E 005°19'0 0.0
2017-Jun-19 08:28N 59°17' E 005°19'0 0.0
2017-Jun-19 07:58N 59°17' E 005°19'0 0.0
2017-Jun-19 07:28N 59°17' E 005°19'0 0.0
2017-Jun-19 06:58N 59°17' E 005°19'0 0.0
2017-Jun-19 06:28N 59°17' E 005°19'0 0.0
2017-Jun-19 05:58N 59°17' E 005°19'0 0.0
2017-Jun-19 05:28N 59°17' E 005°19'0 0.0
2017-Jun-19 04:58N 59°17' E 005°19'0 0.0
2017-Jun-19 04:28N 59°17' E 005°19'0 0.0
2017-Jun-19 03:58N 59°17' E 005°19'0 0.0
2017-Jun-19 03:28N 59°17' E 005°19'0 0.0
2017-Jun-19 02:58N 59°17' E 005°19'0 0.0
2017-Jun-19 02:28N 59°17' E 005°19'0 0.0
2017-Jun-19 01:58N 59°17' E 005°19'0 0.0
2017-Jun-19 01:28N 59°17' E 005°19'0 0.0
2017-Jun-19 00:58N 59°17' E 005°19'0 0.0
2017-Jun-19 00:28N 59°17' E 005°19'0 0.0
2017-Jun-18 23:58N 59°17' E 005°19'0 0.0
2017-Jun-18 23:28N 59°17' E 005°19'0 0.0
2017-Jun-18 22:58N 59°17' E 005°19'0 0.0
2017-Jun-18 22:28N 59°17' E 005°19'0 0.0
2017-Jun-18 21:58N 59°17' E 005°19'0 0.0
2017-Jun-18 21:28N 59°17' E 005°19'0 0.0
2017-Jun-18 20:58N 59°17' E 005°19'0 0.0
2017-Jun-18 20:28N 59°17' E 005°19'0 0.0
2017-Jun-18 19:58N 59°17' E 005°19'0 0.0
2017-Jun-18 19:28N 59°17' E 005°19'0 0.0
2017-Jun-18 18:58N 59°17' E 005°19'0 0.0
2017-Jun-18 18:28N 59°17' E 005°19'0 0.0
2017-Jun-18 17:58N 59°17' E 005°19'0 0.0
2017-Jun-18 17:28N 59°17' E 005°19'0 0.0
2017-Jun-18 16:58N 59°17' E 005°19'0 0.0
2017-Jun-18 16:28N 59°17' E 005°19'0 0.0
2017-Jun-18 15:58N 59°17' E 005°19'0 0.0
2017-Jun-18 15:28N 59°17' E 005°19'0 0.0
2017-Jun-18 14:58N 59°17' E 005°19'0 0.0
2017-Jun-18 13:58N 59°17' E 005°19'0 0.0
2017-Jun-18 13:28N 59°17' E 005°19'0 0.0
2017-Jun-18 12:58N 59°17' E 005°19'0 0.0
2017-Jun-18 12:28N 59°17' E 005°19'0 0.0
2017-Jun-18 11:58N 59°17' E 005°19'0 0.0
2017-Jun-18 11:28N 59°17' E 005°19'0 0.0
2017-Jun-18 10:58N 59°17' E 005°19'0 0.0
2017-Jun-18 10:28N 59°17' E 005°19'0 0.0
2017-Jun-18 09:58N 59°17' E 005°19'0 0.0
2017-Jun-18 09:28N 59°17' E 005°19'0 0.0
2017-Jun-18 08:58N 59°17' E 005°19'0 0.0
2017-Jun-18 08:28N 59°17' E 005°19'0 0.0
2017-Jun-18 07:58N 59°17' E 005°19'0 0.0
2017-Jun-18 07:28N 59°17' E 005°19'0 0.0
2017-Jun-18 06:58N 59°17' E 005°19'0 0.0
2017-Jun-18 06:28N 59°17' E 005°19'0 0.0
2017-Jun-18 05:58N 59°17' E 005°19'0 0.0
2017-Jun-18 05:28N 59°17' E 005°19'0 0.0
2017-Jun-18 04:58N 59°17' E 005°19'0 0.0
2017-Jun-18 04:28N 59°17' E 005°19'0 0.0
2017-Jun-18 03:58N 59°17' E 005°19'0 0.0
2017-Jun-18 03:28N 59°17' E 005°19'0 0.0
2017-Jun-18 02:58N 59°17' E 005°19'0 0.0
2017-Jun-18 02:28N 59°17' E 005°19'0 0.0
2017-Jun-18 01:58N 59°17' E 005°19'0 0.0
2017-Jun-18 01:28N 59°17' E 005°19'0 0.0
2017-Jun-18 00:58N 59°17' E 005°19'0 0.0
2017-Jun-18 00:28N 59°17' E 005°19'0 0.0
2017-Jun-17 23:58N 59°17' E 005°19'0 0.0
2017-Jun-17 23:28N 59°17' E 005°19'0 0.0
2017-Jun-17 22:58N 59°17' E 005°19'0 0.0
2017-Jun-17 22:28N 59°17' E 005°19'0 0.0
2017-Jun-17 21:58N 59°17' E 005°19'0 0.0
2017-Jun-17 21:28N 59°17' E 005°19'0 0.0
2017-Jun-17 20:58N 59°17' E 005°19'0 0.0
2017-Jun-17 20:28N 59°17' E 005°19'0 0.0
2017-Jun-17 19:58N 59°17' E 005°19'0 0.0
2017-Jun-17 19:28N 59°17' E 005°19'0 0.0
2017-Jun-17 18:58N 59°17' E 005°19'0 0.0
2017-Jun-17 18:28N 59°17' E 005°19'0 0.0
2017-Jun-17 17:58N 59°17' E 005°19'0 0.0
2017-Jun-17 17:28N 59°17' E 005°19'0 0.0
2017-Jun-17 16:58N 59°17' E 005°19'0 0.0
2017-Jun-17 16:28N 59°17' E 005°19'0 0.0
2017-Jun-17 15:58N 59°17' E 005°19'0 0.0
2017-Jun-17 15:28N 59°17' E 005°19'0 0.0
2017-Jun-17 14:58N 59°17' E 005°19'0 0.0
2017-Jun-17 13:58N 59°17' E 005°19'  

Dump ship's entire track history